Flight Track Log - Related Links

Times and Time Zones

All times are in EDT time to prevent confusion due to time zone crossing. See the AAY876 flight status page for this flight to view local times or setup timezone preferences in your user account.

Time Position Orientation Groundspeed Altitude Reporting Facility
EDT Latitude Longitude Course Direction KTS MPH feet Rate Location/Type
Mon 05:52:08 PM 27.9167 -82.6833 360° North 123 142 500  Level Tampa TRACON
Mon 05:52:26 PM 27.9333 -82.7000 319° Northwest 156 180 1,300 1,692 Climbing Tampa TRACON
Mon 05:53:26 PM 27.9833 -82.6833 16° North 217 250 2,700 1,835 Climbing Tampa TRACON
Mon 05:54:27 PM 28.0500 -82.6500 24° Northeast 283 326 5,000 2,430 Climbing Tampa TRACON
Mon 05:56:46 PM 28.2333 -82.6947 348° North 281 323 10,800 2,201 Climbing Jacksonville Center
Mon 05:57:46 PM 28.3250 -82.7228 345° North 311 358 12,300 1,900 Climbing Jacksonville Center
Mon 05:58:46 PM 28.4067 -82.7864 326° Northwest 352 405 14,600 2,200 Climbing Jacksonville Center
Mon 05:59:46 PM 28.4922 -82.8594 323° Northwest 362 417 16,700 1,900 Climbing Jacksonville Center
Mon 06:00:46 PM 28.5861 -82.9186 331° Northwest 378 435 18,400 1,550 Climbing Jacksonville Center
Mon 06:01:46 PM 28.6736 -82.9731 331° Northwest 383 441 19,800 1,600 Climbing Jacksonville Center
Mon 06:02:46 PM 28.7739 -83.0347 332° Northwest 394 453 21,600 1,600 Climbing Jacksonville Center
Mon 06:03:46 PM 28.8761 -83.0989 331° Northwest 405 466 23,000 1,450 Climbing Jacksonville Center
Mon 06:04:46 PM 28.9803 -83.1678 330° Northwest 417 480 24,500 1,350 Climbing Jacksonville Center
Mon 06:05:46 PM 29.0864 -83.2394 329° Northwest 427 491 25,700 1,250 Climbing Jacksonville Center
Mon 06:06:46 PM 29.1906 -83.3136 328° Northwest 432 497 27,000 1,150 Climbing Jacksonville Center
Mon 06:07:46 PM 29.2989 -83.3903 328° Northwest 443 510 28,000 1,050 Climbing Jacksonville Center
Mon 06:08:46 PM 29.4072 -83.4672 328° Northwest 453 521 29,100 1,000 Climbing Jacksonville Center
Mon 06:09:46 PM 29.5153 -83.5489 327° Northwest 458 527 30,000 900 Climbing Jacksonville Center
Mon 06:10:46 PM 29.6233 -83.6308 327° Northwest 463 533 30,900 800 Climbing Jacksonville Center
Mon 06:11:46 PM 29.7314 -83.7178 325° Northwest 463 533 31,600 550 Climbing Jacksonville Center
Mon 06:12:46 PM 29.8458 -83.7978 329° Northwest 463 533 32,000 200 Climbing Jacksonville Center
Mon 06:13:46 PM 29.9708 -83.8206 351° North 454 522 32,000  Level Jacksonville Center
Mon 06:14:46 PM 30.0981 -83.8408 352° North 449 517 32,000  Level Jacksonville Center
Mon 06:15:46 PM 30.2253 -83.8639 351° North 455 524 32,000  Level Jacksonville Center
Mon 06:16:46 PM 30.3503 -83.8819 353° North 455 524 32,000 200 Level Jacksonville Center
Mon 06:17:46 PM 30.4775 -83.9025 352° North 455 524 32,400 900 Climbing Jacksonville Center
Mon 06:18:46 PM 30.5986 -83.9231 352° North 449 517 33,800 1,050 Climbing Jacksonville Center
Mon 06:19:46 PM 30.7256 -83.9439 352° North 444 511 34,500 900 Climbing Jacksonville Center
Mon 06:20:46 PM 30.8486 -83.9622 353° North 449 517 35,600 750 Climbing Jacksonville Center
Mon 06:21:46 PM 30.9739 -83.9756 355° North 449 517 36,000 200 Climbing Jacksonville Center
Mon 06:22:46 PM 31.0953 -83.9528 North 441 507 36,000  Level Jacksonville Center
Mon 06:25:15 PM 31.4147 -83.9100 North 441 507 36,000 29 Level Atlanta Center
Mon 06:26:15 PM 31.5419 -83.8878 North 447 514 36,100  Climbing Atlanta Center
Mon 06:27:15 PM 31.6442 -83.8875 360° North 452 520 36,000 -50 Descending Atlanta Center
Mon 06:28:15 PM 31.7819 -83.9339 344° North 452 520 36,000  Level Atlanta Center
Mon 06:29:15 PM 31.9011 -83.9678 346° North 452 520 36,000  Level Atlanta Center
Mon 06:30:15 PM 32.0242 -84.0094 344° North 447 514 36,000  Level Atlanta Center
Mon 06:31:15 PM 32.1472 -84.0461 346° North 453 521 36,000  Level Atlanta Center
Mon 06:32:15 PM 32.2706 -84.0881 344° North 453 521 36,000  Level Atlanta Center
Mon 06:33:15 PM 32.3894 -84.1275 344° North 453 521 36,000  Level Atlanta Center
Mon 06:34:15 PM 32.5106 -84.1644 346° North 453 521 36,000  Level Atlanta Center
Mon 06:35:15 PM 32.6314 -84.2042 345° North 453 521 36,000  Level Atlanta Center
Mon 06:36:15 PM 32.7503 -84.2439 344° North 453 521 36,000  Level Atlanta Center
Mon 06:37:15 PM 32.8714 -84.2836 345° North 453 521 36,000  Level Atlanta Center
Mon 06:38:15 PM 32.9925 -84.3236 345° North 453 521 36,000  Level Atlanta Center
Mon 06:39:15 PM 33.1114 -84.3636 344° North 448 516 36,000  Level Atlanta Center
Mon 06:45:43 PM 33.9168 -84.6276 344° North 438 504 36,000  Level FlightAware ADS-B (KDZJ)
Mon 06:46:22 PM 33.9949 -84.6538 344° North 437 503 36,000  Level FlightAware ADS-B (KDZJ)
Mon 06:47:01 PM 34.0724 -84.6799 344° North 437 503 36,000  Level FlightAware ADS-B (KDZJ)
Mon 06:47:42 PM 34.1542 -84.7076 344° North 438 504 36,000  Level FlightAware ADS-B (KDZJ)
Mon 06:48:22 PM 34.2325 -84.7341 344° North 448 516 36,000  Level FlightAware ADS-B (KDZJ)
Mon 06:49:02 PM 34.3141 -84.7617 344° North 450 518 36,000  Level FlightAware ADS-B (KDZJ)
Mon 06:49:42 PM 34.3929 -84.7885 344° North 451 519 36,000  Level FlightAware ADS-B (KDZJ)
Mon 06:50:22 PM 34.4736 -84.8161 344° North 451 519 36,000  Level FlightAware ADS-B (KDZJ)
Mon 06:51:02 PM 34.5541 -84.8436 344° North 450 518 36,000  Level FlightAware ADS-B (KDZJ)
Mon 06:51:41 PM 34.6329 -84.8705 344° North 450 518 36,000  Level FlightAware ADS-B (KDZJ)
Mon 06:52:18 PM 34.6797 -84.8865 344° North 449 517 36,000  Level FlightAware ADS-B (KMDQ)
Mon 06:53:24 PM 34.7814 -84.9214 344° North 450 518 36,000  Level FlightAware ADS-B (KMDQ)
Mon 06:54:03 PM 34.9076 -84.9648 344° North 449 517 36,000  Level FlightAware ADS-B (KMDQ)
Mon 06:54:42 PM 34.9814 -84.9903 344° North 449 517 36,000  Level FlightAware ADS-B (KMDQ)
Mon 06:55:21 PM 35.0548 -85.0156 344° North 449 517 36,000  Level FlightAware ADS-B (KMDQ)
Mon 06:55:57 PM 35.1357 -85.0436 344° North 449 517 36,000  Level FlightAware ADS-B (KMDQ)
Mon 06:56:44 PM 35.2220 -85.0736 344° North 448 516 36,000  Level FlightAware ADS-B (KMDQ)
Mon 06:57:40 PM 35.3336 -85.1124 344° North 448 516 36,000  Level FlightAware ADS-B (KMDQ)
Mon 06:58:20 PM 35.4092 -85.1387 344° North 447 514 36,000  Level FlightAware ADS-B (KMDQ)
Mon 06:59:03 PM 35.5072 -85.1726 344° North 447 514 36,000  Level FlightAware ADS-B (KMDQ)
Mon 06:59:44 PM 35.5877 -85.2010 344° North 447 514 36,000  Level FlightAware ADS-B (KMDQ)
Mon 07:00:22 PM 35.6632 -85.2276 344° North 447 514 36,000  Level FlightAware ADS-B (KMDQ)
Mon 07:01:03 PM 35.7463 -85.2568 344° North 445 512 36,000  Level FlightAware ADS-B (KMDQ)
Mon 07:01:43 PM 35.8248 -85.2845 344° North 443 510 36,000  Level FlightAware ADS-B (KMDQ)
Mon 07:02:22 PM 35.9004 -85.3112 344° North 442 509 36,000  Level FlightAware ADS-B (KMDQ)
Mon 07:03:03 PM 35.9778 -85.3385 344° North 442 509 36,000  Level FlightAware ADS-B (KMDQ)
Mon 07:03:44 PM 36.0582 -85.3671 344° North 444 511 36,000  Level FlightAware ADS-B (KMDQ)
Mon 07:04:23 PM 36.1398 -85.3961 344° North 446 513 36,000  Level FlightAware ADS-B (KMDQ)
Mon 07:05:02 PM 36.2184 -85.4240 344° North 449 517 36,000  Level FlightAware ADS-B (KMDQ)
Mon 07:05:42 PM 36.2989 -85.4528 344° North 450 518 36,000  Level FlightAware ADS-B (KMDQ)
Mon 07:06:30 PM 36.3943 -85.4868 344° North 449 517 36,000  Level FlightAware ADS-B (KMDQ)
Mon 07:07:01 PM 36.4400 -85.5039 344° North 445 512 36,000  Level Indianapolis Center
Mon 07:08:03 PM 36.5600 -85.5464 344° North 446 513 36,000  Level Indianapolis Center
Mon 07:09:05 PM 36.6825 -85.5897 344° North 450 518 36,000  Level Indianapolis Center
Mon 07:10:07 PM 36.8067 -85.6356 344° North 450 518 36,000  Level Indianapolis Center
Mon 07:11:09 PM 36.9492 -85.6881 344° North 451 519 36,000  Level Indianapolis Center
Mon 07:12:11 PM 37.0697 -85.7317 344° North 451 519 36,000  Level Indianapolis Center
Mon 07:13:13 PM 37.1911 -85.7750 344° North 451 519 36,000  Level Indianapolis Center
Mon 07:14:15 PM 37.3086 -85.8192 343° North 450 518 36,000  Level Indianapolis Center
Mon 07:15:17 PM 37.4322 -85.8653 344° North 450 518 36,000  Level Indianapolis Center
Mon 07:16:19 PM 37.5536 -85.9081 344° North 450 518 36,000  Level Indianapolis Center
Mon 07:17:20 PM 37.6942 -85.9608 343° North 450 518 36,000  Level Indianapolis Center
Mon 07:18:22 PM 37.8144 -86.0064 343° North 450 518 36,000  Level Indianapolis Center
Mon 07:19:24 PM 37.9339 -86.0514 343° North 450 518 36,000  Level Indianapolis Center
Mon 07:20:26 PM 38.0539 -86.0956 344° North 450 518 36,000  Level Indianapolis Center
Mon 07:21:28 PM 38.1719 -86.1394 344° North 449 517 36,000  Level Indianapolis Center
Mon 07:22:30 PM 38.2900 -86.1839 344° North 448 516 36,000  Level Indianapolis Center
Mon 07:23:32 PM 38.4333 -86.2383 343° North 448 516 36,000  Level Indianapolis Center
Mon 07:24:34 PM 38.5531 -86.2844 343° North 448 516 36,000  Level Indianapolis Center
Mon 07:25:36 PM 38.6728 -86.3292 344° North 448 516 36,000 14 Level Indianapolis Center
Mon 07:31:37 PM 39.4238 -86.4680 353° North 449 517 36,100  Climbing FlightAware ADS-B
Mon 07:35:19 PM 39.8472 -86.6765 337° Northwest 441 507 36,000 -21 Descending FlightAware ADS-B
Mon 07:36:27 PM 39.9058 -86.7087 337° Northwest 440 506 36,000  Level FlightAware ADS-B
Mon 07:37:18 PM 40.0691 -86.7987 337° Northwest 439 505 36,000  Level FlightAware ADS-B
Mon 07:37:48 PM 40.0878 -86.8090 337° Northwest 437 503 36,000  Level FlightAware ADS-B
Mon 07:38:44 PM 40.2060 -86.8743 337° Northwest 432 497 36,000  Level FlightAware ADS-B
Mon 07:39:48 PM 40.3470 -86.9526 337° Northwest 430 495 36,000  Level FlightAware ADS-B
Mon 07:40:18 PM 40.4015 -86.9829 337° Northwest 429 494 36,000  Level FlightAware ADS-B
Mon 07:40:48 PM 40.4570 -87.0140 337° Northwest 431 496 36,000  Level FlightAware ADS-B
Mon 07:41:27 PM 40.5293 -87.0545 337° Northwest 434 499 36,000  Level FlightAware ADS-B
Mon 07:41:58 PM 40.5869 -87.0870 337° Northwest 436 502 36,000  Level FlightAware ADS-B
Mon 07:42:29 PM 40.6439 -87.1190 337° Northwest 437 503 36,000  Level FlightAware ADS-B
Mon 07:43:45 PM 40.7685 -87.1895 337° Northwest 443 510 36,000 46 Level FlightAware ADS-B
Mon 07:44:40 PM 40.8900 -87.2577 337° Northwest 442 509 36,100  Climbing FlightAware ADS-B
Mon 07:45:20 PM 40.9660 -87.3002 337° Northwest 442 509 36,000 -86 Descending FlightAware ADS-B
Mon 07:45:50 PM 41.0173 -87.3348 322° Northwest 437 503 36,000  Level FlightAware ADS-B
Mon 07:46:10 PM 41.0477 -87.3738 308° West 431 496 36,000 -1,500 Level FlightAware ADS-B
Mon 07:46:50 PM 41.0933 -87.4597 305° West 428 493 34,500 -2,917 Descending FlightAware ADS-B
Mon 07:47:22 PM 41.1071 -87.4855 305° West 433 498 32,500 -3,342 Descending FlightAware ADS-B
Mon 07:48:09 PM 41.1843 -87.6304 305° West 430 495 30,100 -2,769 Descending FlightAware ADS-B
Mon 07:48:40 PM 41.2202 -87.6979 305° West 421 484 28,900 -2,459 Descending FlightAware ADS-B
Mon 07:49:10 PM 41.2534 -87.7607 305° West 413 475 27,600 -2,400 Descending FlightAware ADS-B
Mon 07:49:40 PM 41.2847 -87.8198 305° West 402 463 26,500 -2,500 Descending FlightAware ADS-B
Mon 07:50:10 PM 41.3164 -87.8796 305° West 399 459 25,100 -2,143 Descending FlightAware ADS-B
Mon 07:50:50 PM 41.3576 -87.9581 305° West 396 456 24,000 -943 Descending FlightAware ADS-B
Mon 07:51:20 PM 41.3912 -88.0223 305° West 398 458 24,000  Level FlightAware ADS-B
Mon 07:51:52 PM 41.4245 -88.0858 305° West 390 449 24,000  Level FlightAware ADS-B
Mon 07:52:31 PM 41.4644 -88.1622 305° West 377 434 24,000  Level FlightAware ADS-B
Mon 07:53:03 PM 41.4961 -88.2233 305° West 384 442 24,000  Level FlightAware ADS-B
Mon 07:53:36 PM 41.5186 -88.2692 297° West 386 444 24,000  Level FlightAware ADS-B
Mon 07:54:15 PM 41.5537 -88.3756 297° West 386 444 24,000  Level FlightAware ADS-B
Mon 07:54:27 PM 41.5595 -88.4035 284° West 389 448 24,000  Level FlightAware ADS-B
Mon 07:54:58 PM 41.5709 -88.4728 282° West 383 441 24,000 -1,880 Level FlightAware ADS-B
Mon 07:55:50 PM 41.5904 -88.5932 282° West 375 432 21,400 -3,064 Descending FlightAware ADS-B
Mon 07:56:32 PM 41.6048 -88.6818 282° West 360 414 19,200 -3,120 Descending FlightAware ADS-B
Mon 07:57:05 PM 41.6167 -88.7563 282° West 342 394 17,500 -3,000 Descending FlightAware ADS-B
Mon 07:57:44 PM 41.6283 -88.8273 282° West 326 375 15,600 -2,700 Descending FlightAware ADS-B
Mon 07:58:25 PM 41.6416 -88.9127 282° West 309 356 13,900 -2,132 Descending FlightAware ADS-B
Mon 07:59:00 PM 41.6503 -88.9673 282° West 307 353 12,900 -667 Descending FlightAware ADS-B
Mon 07:59:46 PM 41.6655 -89.0645 282° West 318 366 13,000 70 Climbing FlightAware ADS-B
Mon 08:00:26 PM 41.6776 -89.1428 282° West 320 368 13,000 -563 Level FlightAware ADS-B
Mon 08:01:22 PM 41.7182 -89.2335 314° West 308 354 12,100 -1,000 Descending FlightAware ADS-B
Mon 08:01:32 PM 41.7271 -89.2445 324° Northwest 311 358 11,900 -1,747 Descending FlightAware ADS-B
Mon 08:02:41 PM 41.8208 -89.2578 324° Northwest 310 357 9,800 -1,924 Descending Chicago Center
Mon 08:03:43 PM 41.9019 -89.2494 North 295 339 7,700 -2,371 Descending Chicago Center
Mon 08:04:45 PM 41.9817 -89.2183 16° North 299 344 4,900 -2,129 Descending Chicago Center
Mon 08:05:47 PM 42.0572 -89.1811 20° North 293 337 3,300 -1,024 Descending Chicago Center
Mon 08:06:48 PM 42.1194 -89.0994 44° Northeast 276 318 2,800 -439 Descending Chicago Center
Mon 08:07:50 PM 42.1575 -89.0281 54° Northeast 242 278 2,400 -387 Descending Chicago Center
Mon 08:08:52 PM 42.2050 -89.0175 North 220 253 2,000 -387 Descending Chicago Center

Login

Don't have an account? Register now (free) for customized features, flight alerts, and more!